Terminal Aerodrome Forecast
Issued by NWS

Home | Current Version | Previous Version | Graphics & Text | Print | Product List | Glossary On
Versions: 1 2 3 4 5 6 7 8 9 10 11 12 13 14 15 16
000
FTUS43 KABR 200500
TAFMBG
TAF
KMBG 200523Z 2006/2106 VRB05KT P6SM SCT150
     FM201700 29019G29KT P6SM SKC
     FM210000 33012KT P6SM SKC=

USA.gov is the U.S. government's official web portal to all federal, state and local government web resources and services.